sensor_id;sensor_type;location;lat;lon;timestamp;temperature;humidity
8248;DHT22;4164;49.844;8.830;2022-12-07T00:00:29;3.90;99.90
8248;DHT22;4164;49.844;8.830;2022-12-07T00:02:55;4.00;99.90
8248;DHT22;4164;49.844;8.830;2022-12-07T00:05:21;4.00;99.90
8248;DHT22;4164;49.844;8.830;2022-12-07T00:07:46;3.90;99.90
8248;DHT22;4164;49.844;8.830;2022-12-07T00:10:12;4.00;99.90
8248;DHT22;4164;49.844;8.830;2022-12-07T00:12:37;4.10;99.90
8248;DHT22;4164;49.844;8.830;2022-12-07T00:15:03;4.00;99.90
8248;DHT22;4164;49.844;8.830;2022-12-07T00:17:29;3.90;99.90
8248;DHT22;4164;49.844;8.830;2022-12-07T00:19:54;4.00;99.90
8248;DHT22;4164;49.844;8.830;2022-12-07T00:22:20;4.10;99.90
8248;DHT22;4164;49.844;8.830;2022-12-07T00:24:45;3.90;99.90
8248;DHT22;4164;49.844;8.830;2022-12-07T00:27:11;4.10;99.90
8248;DHT22;4164;49.844;8.830;2022-12-07T00:29:37;4.00;99.90
8248;DHT22;4164;49.844;8.830;2022-12-07T00:32:03;4.10;99.90
8248;DHT22;4164;49.844;8.830;2022-12-07T00:34:29;3.90;99.90
8248;DHT22;4164;49.844;8.830;2022-12-07T00:36:54;3.80;99.90
8248;DHT22;4164;49.844;8.830;2022-12-07T00:39:20;3.80;99.90
8248;DHT22;4164;49.844;8.830;2022-12-07T00:41:45;3.80;99.90
8248;DHT22;4164;49.844;8.830;2022-12-07T00:44:11;3.80;99.90
8248;DHT22;4164;49.844;8.830;2022-12-07T00:46:37;3.90;99.90
8248;DHT22;4164;49.844;8.830;2022-12-07T00:49:02;3.90;99.90
8248;DHT22;4164;49.844;8.830;2022-12-07T00:51:28;3.80;99.90
8248;DHT22;4164;49.844;8.830;2022-12-07T00:53:54;3.80;99.90
8248;DHT22;4164;49.844;8.830;2022-12-07T00:56:23;3.80;99.90
8248;DHT22;4164;49.844;8.830;2022-12-07T00:58:57;3.70;99.90
8248;DHT22;4164;49.844;8.830;2022-12-07T01:01:25;3.70;99.90
8248;DHT22;4164;49.844;8.830;2022-12-07T01:03:50;3.70;99.90
8248;DHT22;4164;49.844;8.830;2022-12-07T01:06:18;3.80;99.90
8248;DHT22;4164;49.844;8.830;2022-12-07T01:08:44;3.80;99.90
8248;DHT22;4164;49.844;8.830;2022-12-07T01:11:16;3.80;99.90
8248;DHT22;4164;49.844;8.830;2022-12-07T01:13:42;3.80;99.90
8248;DHT22;4164;49.844;8.830;2022-12-07T01:16:11;3.90;99.90
8248;DHT22;4164;49.844;8.830;2022-12-07T01:18:38;3.90;99.90
8248;DHT22;4164;49.844;8.830;2022-12-07T01:21:08;3.90;99.90
8248;DHT22;4164;49.844;8.830;2022-12-07T01:23:34;3.90;99.90
8248;DHT22;4164;49.844;8.830;2022-12-07T01:26:03;4.00;99.90
8248;DHT22;4164;49.844;8.830;2022-12-07T01:28:29;3.90;99.90
8248;DHT22;4164;49.844;8.830;2022-12-07T01:31:06;3.90;99.90
8248;DHT22;4164;49.844;8.830;2022-12-07T01:33:35;4.00;99.90
8248;DHT22;4164;49.844;8.830;2022-12-07T01:36:14;4.00;99.90
8248;DHT22;4164;49.844;8.830;2022-12-07T01:38:41;4.10;99.90
8248;DHT22;4164;49.844;8.830;2022-12-07T01:41:06;4.10;99.90
8248;DHT22;4164;49.844;8.830;2022-12-07T01:43:33;4.10;99.90
8248;DHT22;4164;49.844;8.830;2022-12-07T01:46:00;4.00;99.90
8248;DHT22;4164;49.844;8.830;2022-12-07T01:48:29;4.10;99.90
8248;DHT22;4164;49.844;8.830;2022-12-07T01:50:56;4.10;99.90
8248;DHT22;4164;49.844;8.830;2022-12-07T01:53:27;4.20;99.90
8248;DHT22;4164;49.844;8.830;2022-12-07T01:55:54;4.20;99.90
8248;DHT22;4164;49.844;8.830;2022-12-07T01:58:20;4.20;99.90
8248;DHT22;4164;49.844;8.830;2022-12-07T02:00:46;4.20;99.90
8248;DHT22;4164;49.844;8.830;2022-12-07T02:03:20;4.20;99.90
8248;DHT22;4164;49.844;8.830;2022-12-07T02:05:48;4.20;99.90
8248;DHT22;4164;49.844;8.830;2022-12-07T02:08:14;4.10;99.90
8248;DHT22;4164;49.844;8.830;2022-12-07T02:10:40;4.00;99.90
8248;DHT22;4164;49.844;8.830;2022-12-07T02:13:19;3.90;99.90
8248;DHT22;4164;49.844;8.830;2022-12-07T02:21:07;3.70;99.90
8248;DHT22;4164;49.844;8.830;2022-12-07T02:26:50;3.90;99.90
8248;DHT22;4164;49.844;8.830;2022-12-07T02:29:40;3.80;99.90
8248;DHT22;4164;49.844;8.830;2022-12-07T02:32:19;3.80;99.90
8248;DHT22;4164;49.844;8.830;2022-12-07T02:40:14;3.70;99.90
8248;DHT22;4164;49.844;8.830;2022-12-07T02:42:47;3.70;99.90
8248;DHT22;4164;49.844;8.830;2022-12-07T02:45:17;3.80;99.90
8248;DHT22;4164;49.844;8.830;2022-12-07T02:47:49;3.80;99.90
8248;DHT22;4164;49.844;8.830;2022-12-07T02:50:19;3.80;99.90
8248;DHT22;4164;49.844;8.830;2022-12-07T02:52:45;3.90;99.90
8248;DHT22;4164;49.844;8.830;2022-12-07T02:55:12;3.90;99.90
8248;DHT22;4164;49.844;8.830;2022-12-07T03:00:54;3.90;99.90
8248;DHT22;4164;49.844;8.830;2022-12-07T03:03:24;3.90;99.90
8248;DHT22;4164;49.844;8.830;2022-12-07T03:06:12;4.00;99.90
8248;DHT22;4164;49.844;8.830;2022-12-07T03:11:13;4.00;99.90
8248;DHT22;4164;49.844;8.830;2022-12-07T03:13:54;3.90;99.90
8248;DHT22;4164;49.844;8.830;2022-12-07T03:16:33;4.00;99.90
8248;DHT22;4164;49.844;8.830;2022-12-07T03:19:05;4.10;99.90
8248;DHT22;4164;49.844;8.830;2022-12-07T03:21:39;4.10;99.90
8248;DHT22;4164;49.844;8.830;2022-12-07T03:24:12;4.20;99.90
8248;DHT22;4164;49.844;8.830;2022-12-07T03:26:44;4.00;99.90
8248;DHT22;4164;49.844;8.830;2022-12-07T03:29:20;4.00;99.90
8248;DHT22;4164;49.844;8.830;2022-12-07T03:31:53;4.20;99.90
8248;DHT22;4164;49.844;8.830;2022-12-07T03:34:28;4.20;99.90
8248;DHT22;4164;49.844;8.830;2022-12-07T03:37:05;4.20;99.90
8248;DHT22;4164;49.844;8.830;2022-12-07T03:39:46;4.10;99.90
8248;DHT22;4164;49.844;8.830;2022-12-07T03:42:15;4.00;99.90
8248;DHT22;4164;49.844;8.830;2022-12-07T03:44:41;4.00;99.90
8248;DHT22;4164;49.844;8.830;2022-12-07T03:50:11;3.90;99.90
8248;DHT22;4164;49.844;8.830;2022-12-07T03:52:54;3.90;99.90
8248;DHT22;4164;49.844;8.830;2022-12-07T03:55:32;3.90;99.90
8248;DHT22;4164;49.844;8.830;2022-12-07T03:58:07;3.80;99.90
8248;DHT22;4164;49.844;8.830;2022-12-07T04:00:34;3.70;99.90
8248;DHT22;4164;49.844;8.830;2022-12-07T04:03:00;3.70;99.90
8248;DHT22;4164;49.844;8.830;2022-12-07T04:05:26;3.70;99.90
8248;DHT22;4164;49.844;8.830;2022-12-07T04:07:51;3.50;99.90
8248;DHT22;4164;49.844;8.830;2022-12-07T04:10:17;3.50;99.90
8248;DHT22;4164;49.844;8.830;2022-12-07T04:12:43;3.50;99.90
8248;DHT22;4164;49.844;8.830;2022-12-07T04:15:09;3.60;99.90
8248;DHT22;4164;49.844;8.830;2022-12-07T04:17:34;3.60;99.90
8248;DHT22;4164;49.844;8.830;2022-12-07T04:20:00;3.60;99.90
8248;DHT22;4164;49.844;8.830;2022-12-07T04:22:26;3.50;99.90
8248;DHT22;4164;49.844;8.830;2022-12-07T04:24:51;3.50;99.90
8248;DHT22;4164;49.844;8.830;2022-12-07T04:27:17;3.50;99.90
8248;DHT22;4164;49.844;8.830;2022-12-07T04:29:42;3.50;99.90
8248;DHT22;4164;49.844;8.830;2022-12-07T04:32:08;3.50;99.90
8248;DHT22;4164;49.844;8.830;2022-12-07T04:34:33;3.50;99.90
8248;DHT22;4164;49.844;8.830;2022-12-07T04:36:59;3.50;99.90
8248;DHT22;4164;49.844;8.830;2022-12-07T04:39:28;3.50;99.90
8248;DHT22;4164;49.844;8.830;2022-12-07T04:41:54;3.50;99.90
8248;DHT22;4164;49.844;8.830;2022-12-07T04:44:21;3.50;99.90
8248;DHT22;4164;49.844;8.830;2022-12-07T04:46:47;3.50;99.90
8248;DHT22;4164;49.844;8.830;2022-12-07T04:49:13;3.40;99.90
8248;DHT22;4164;49.844;8.830;2022-12-07T04:51:39;3.40;99.90
8248;DHT22;4164;49.844;8.830;2022-12-07T04:54:05;3.40;99.90
8248;DHT22;4164;49.844;8.830;2022-12-07T04:56:31;3.40;99.90
8248;DHT22;4164;49.844;8.830;2022-12-07T04:58:56;3.40;99.90
8248;DHT22;4164;49.844;8.830;2022-12-07T05:01:24;3.40;99.90
8248;DHT22;4164;49.844;8.830;2022-12-07T05:03:50;3.50;99.90
8248;DHT22;4164;49.844;8.830;2022-12-07T05:06:16;3.50;99.90
8248;DHT22;4164;49.844;8.830;2022-12-07T05:08:43;3.40;99.90
8248;DHT22;4164;49.844;8.830;2022-12-07T05:11:09;3.50;99.90
8248;DHT22;4164;49.844;8.830;2022-12-07T05:13:55;3.50;99.90
8248;DHT22;4164;49.844;8.830;2022-12-07T05:16:20;3.60;99.90
8248;DHT22;4164;49.844;8.830;2022-12-07T05:18:46;3.60;99.90
8248;DHT22;4164;49.844;8.830;2022-12-07T05:21:11;3.60;99.90
8248;DHT22;4164;49.844;8.830;2022-12-07T05:23:37;3.60;99.90
8248;DHT22;4164;49.844;8.830;2022-12-07T05:26:02;3.50;99.90
8248;DHT22;4164;49.844;8.830;2022-12-07T05:28:28;3.50;99.90
8248;DHT22;4164;49.844;8.830;2022-12-07T05:30:53;3.50;99.90
8248;DHT22;4164;49.844;8.830;2022-12-07T05:33:19;3.60;99.90
8248;DHT22;4164;49.844;8.830;2022-12-07T05:35:44;3.60;99.90
8248;DHT22;4164;49.844;8.830;2022-12-07T05:38:13;3.70;99.90
8248;DHT22;4164;49.844;8.830;2022-12-07T05:40:39;3.70;99.90
8248;DHT22;4164;49.844;8.830;2022-12-07T05:43:04;3.70;99.90
8248;DHT22;4164;49.844;8.830;2022-12-07T05:45:30;3.60;99.90
8248;DHT22;4164;49.844;8.830;2022-12-07T05:47:55;3.60;99.90
8248;DHT22;4164;49.844;8.830;2022-12-07T05:50:21;3.60;99.90
8248;DHT22;4164;49.844;8.830;2022-12-07T05:52:46;3.60;99.90
8248;DHT22;4164;49.844;8.830;2022-12-07T05:55:12;3.60;99.90
8248;DHT22;4164;49.844;8.830;2022-12-07T05:57:37;3.60;99.90
8248;DHT22;4164;49.844;8.830;2022-12-07T06:00:04;3.60;99.90
8248;DHT22;4164;49.844;8.830;2022-12-07T06:02:30;3.50;99.90
8248;DHT22;4164;49.844;8.830;2022-12-07T06:04:55;3.60;99.90
8248;DHT22;4164;49.844;8.830;2022-12-07T06:07:21;3.60;99.90
8248;DHT22;4164;49.844;8.830;2022-12-07T06:09:46;3.60;99.90
8248;DHT22;4164;49.844;8.830;2022-12-07T06:12:12;3.70;99.90
8248;DHT22;4164;49.844;8.830;2022-12-07T06:14:57;3.80;99.90
8248;DHT22;4164;49.844;8.830;2022-12-07T06:17:22;3.80;99.90
8248;DHT22;4164;49.844;8.830;2022-12-07T06:19:48;3.90;99.90
8248;DHT22;4164;49.844;8.830;2022-12-07T06:22:13;4.00;99.90
8248;DHT22;4164;49.844;8.830;2022-12-07T06:24:39;4.00;99.90
8248;DHT22;4164;49.844;8.830;2022-12-07T06:27:05;4.00;99.90
8248;DHT22;4164;49.844;8.830;2022-12-07T06:29:34;3.90;99.90
8248;DHT22;4164;49.844;8.830;2022-12-07T06:32:00;4.00;99.90
8248;DHT22;4164;49.844;8.830;2022-12-07T06:34:26;4.10;99.90
8248;DHT22;4164;49.844;8.830;2022-12-07T06:36:52;4.20;99.90
8248;DHT22;4164;49.844;8.830;2022-12-07T06:39:20;4.10;99.90
8248;DHT22;4164;49.844;8.830;2022-12-07T06:41:46;4.20;99.90
8248;DHT22;4164;49.844;8.830;2022-12-07T06:44:11;4.20;99.90
8248;DHT22;4164;49.844;8.830;2022-12-07T06:46:37;4.30;99.90
8248;DHT22;4164;49.844;8.830;2022-12-07T06:49:03;4.30;99.90
8248;DHT22;4164;49.844;8.830;2022-12-07T06:51:30;4.30;99.90
8248;DHT22;4164;49.844;8.830;2022-12-07T06:53:55;4.30;99.90
8248;DHT22;4164;49.844;8.830;2022-12-07T06:56:21;4.30;99.90
8248;DHT22;4164;49.844;8.830;2022-12-07T06:58:48;4.40;99.90
8248;DHT22;4164;49.844;8.830;2022-12-07T07:01:18;4.30;99.90
8248;DHT22;4164;49.844;8.830;2022-12-07T07:03:44;4.20;99.90
8248;DHT22;4164;49.844;8.830;2022-12-07T07:06:11;4.20;99.90
8248;DHT22;4164;49.844;8.830;2022-12-07T07:08:38;4.20;99.90
8248;DHT22;4164;49.844;8.830;2022-12-07T07:11:04;4.20;99.90
8248;DHT22;4164;49.844;8.830;2022-12-07T07:13:30;4.20;99.90
8248;DHT22;4164;49.844;8.830;2022-12-07T07:15:55;4.30;99.90
8248;DHT22;4164;49.844;8.830;2022-12-07T07:18:21;4.20;99.90
8248;DHT22;4164;49.844;8.830;2022-12-07T07:20:47;4.20;99.90
8248;DHT22;4164;49.844;8.830;2022-12-07T07:23:13;4.20;99.90
8248;DHT22;4164;49.844;8.830;2022-12-07T07:25:38;4.30;99.90
8248;DHT22;4164;49.844;8.830;2022-12-07T07:28:04;4.30;99.90
8248;DHT22;4164;49.844;8.830;2022-12-07T07:30:30;4.40;99.90
8248;DHT22;4164;49.844;8.830;2022-12-07T07:33:00;4.40;99.90
8248;DHT22;4164;49.844;8.830;2022-12-07T07:35:27;4.40;99.90
8248;DHT22;4164;49.844;8.830;2022-12-07T07:37:54;4.50;99.90
8248;DHT22;4164;49.844;8.830;2022-12-07T07:40:20;4.60;99.90
8248;DHT22;4164;49.844;8.830;2022-12-07T07:42:53;4.50;99.90
8248;DHT22;4164;49.844;8.830;2022-12-07T07:45:21;4.40;99.90
8248;DHT22;4164;49.844;8.830;2022-12-07T07:47:47;4.30;99.90
8248;DHT22;4164;49.844;8.830;2022-12-07T07:50:13;4.30;99.90
8248;DHT22;4164;49.844;8.830;2022-12-07T07:52:39;4.30;99.90
8248;DHT22;4164;49.844;8.830;2022-12-07T07:55:05;4.30;99.90
8248;DHT22;4164;49.844;8.830;2022-12-07T07:57:31;4.40;99.90
8248;DHT22;4164;49.844;8.830;2022-12-07T07:59:56;4.40;99.90
8248;DHT22;4164;49.844;8.830;2022-12-07T08:02:22;4.50;99.90
8248;DHT22;4164;49.844;8.830;2022-12-07T08:04:47;4.60;99.90
8248;DHT22;4164;49.844;8.830;2022-12-07T08:07:14;4.50;99.90
8248;DHT22;4164;49.844;8.830;2022-12-07T08:09:40;4.50;99.90
8248;DHT22;4164;49.844;8.830;2022-12-07T08:12:06;4.60;99.90
8248;DHT22;4164;49.844;8.830;2022-12-07T08:14:32;4.70;99.90
8248;DHT22;4164;49.844;8.830;2022-12-07T08:16:58;4.60;99.90
8248;DHT22;4164;49.844;8.830;2022-12-07T08:19:23;4.60;99.90
8248;DHT22;4164;49.844;8.830;2022-12-07T08:21:49;4.70;99.90
8248;DHT22;4164;49.844;8.830;2022-12-07T08:24:15;4.80;99.90
8248;DHT22;4164;49.844;8.830;2022-12-07T08:26:41;5.00;99.90
8248;DHT22;4164;49.844;8.830;2022-12-07T08:29:07;4.90;99.90
8248;DHT22;4164;49.844;8.830;2022-12-07T08:31:35;4.70;99.90
8248;DHT22;4164;49.844;8.830;2022-12-07T08:34:01;4.70;99.90
8248;DHT22;4164;49.844;8.830;2022-12-07T08:36:27;4.70;99.90
8248;DHT22;4164;49.844;8.830;2022-12-07T08:38:52;4.70;99.90
8248;DHT22;4164;49.844;8.830;2022-12-07T08:41:18;4.70;99.90
8248;DHT22;4164;49.844;8.830;2022-12-07T08:43:44;4.70;99.90
8248;DHT22;4164;49.844;8.830;2022-12-07T08:46:11;4.70;99.90
8248;DHT22;4164;49.844;8.830;2022-12-07T08:48:50;4.70;99.90
8248;DHT22;4164;49.844;8.830;2022-12-07T08:51:18;4.80;99.90
8248;DHT22;4164;49.844;8.830;2022-12-07T08:53:44;4.90;99.90
8248;DHT22;4164;49.844;8.830;2022-12-07T08:56:10;4.80;99.90
8248;DHT22;4164;49.844;8.830;2022-12-07T08:58:37;4.90;99.90
8248;DHT22;4164;49.844;8.830;2022-12-07T09:01:04;4.90;99.90
8248;DHT22;4164;49.844;8.830;2022-12-07T09:03:30;4.80;99.90
8248;DHT22;4164;49.844;8.830;2022-12-07T09:05:56;4.90;99.90
8248;DHT22;4164;49.844;8.830;2022-12-07T09:08:25;4.90;99.90
8248;DHT22;4164;49.844;8.830;2022-12-07T09:10:51;4.90;99.90
8248;DHT22;4164;49.844;8.830;2022-12-07T09:13:17;4.80;99.90
8248;DHT22;4164;49.844;8.830;2022-12-07T09:15:46;4.70;99.90
8248;DHT22;4164;49.844;8.830;2022-12-07T09:18:11;4.90;99.90
8248;DHT22;4164;49.844;8.830;2022-12-07T09:20:37;4.90;99.90
8248;DHT22;4164;49.844;8.830;2022-12-07T09:23:05;4.90;99.90
8248;DHT22;4164;49.844;8.830;2022-12-07T09:25:32;4.80;99.90
8248;DHT22;4164;49.844;8.830;2022-12-07T09:27:58;4.80;99.90
8248;DHT22;4164;49.844;8.830;2022-12-07T09:30:25;4.80;99.90
8248;DHT22;4164;49.844;8.830;2022-12-07T09:32:52;4.80;99.90
8248;DHT22;4164;49.844;8.830;2022-12-07T09:35:18;4.80;99.90
8248;DHT22;4164;49.844;8.830;2022-12-07T09:37:43;4.90;99.90
8248;DHT22;4164;49.844;8.830;2022-12-07T09:40:11;5.20;99.90
8248;DHT22;4164;49.844;8.830;2022-12-07T09:42:39;5.40;99.90
8248;DHT22;4164;49.844;8.830;2022-12-07T09:45:12;5.40;99.90
8248;DHT22;4164;49.844;8.830;2022-12-07T09:47:38;5.50;99.90
8248;DHT22;4164;49.844;8.830;2022-12-07T09:50:10;5.50;99.90
8248;DHT22;4164;49.844;8.830;2022-12-07T09:52:37;6.50;99.90
8248;DHT22;4164;49.844;8.830;2022-12-07T09:55:03;9.70;99.90
8248;DHT22;4164;49.844;8.830;2022-12-07T09:57:31;10.60;99.90
8248;DHT22;4164;49.844;8.830;2022-12-07T10:00:02;10.00;99.90
8248;DHT22;4164;49.844;8.830;2022-12-07T10:05:07;7.00;99.90
8248;DHT22;4164;49.844;8.830;2022-12-07T10:07:33;6.50;99.90
8248;DHT22;4164;49.844;8.830;2022-12-07T10:09:58;6.30;99.90
8248;DHT22;4164;49.844;8.830;2022-12-07T10:12:24;6.20;99.90
8248;DHT22;4164;49.844;8.830;2022-12-07T10:15:00;6.20;99.90
8248;DHT22;4164;49.844;8.830;2022-12-07T10:17:40;6.10;99.90
8248;DHT22;4164;49.844;8.830;2022-12-07T10:22:37;5.70;99.90
8248;DHT22;4164;49.844;8.830;2022-12-07T10:25:18;5.50;99.90
8248;DHT22;4164;49.844;8.830;2022-12-07T10:28:00;5.40;99.90
8248;DHT22;4164;49.844;8.830;2022-12-07T10:30:26;5.40;99.90
8248;DHT22;4164;49.844;8.830;2022-12-07T10:32:52;5.30;99.90
8248;DHT22;4164;49.844;8.830;2022-12-07T10:35:26;5.30;99.90
8248;DHT22;4164;49.844;8.830;2022-12-07T10:37:54;5.30;99.90
8248;DHT22;4164;49.844;8.830;2022-12-07T10:40:27;5.30;99.90
8248;DHT22;4164;49.844;8.830;2022-12-07T10:43:19;5.20;99.90
8248;DHT22;4164;49.844;8.830;2022-12-07T10:48:24;5.50;99.90
8248;DHT22;4164;49.844;8.830;2022-12-07T10:51:16;5.30;99.90
8248;DHT22;4164;49.844;8.830;2022-12-07T11:15:19;5.60;99.90
8248;DHT22;4164;49.844;8.830;2022-12-07T11:26:06;6.00;99.90
8248;DHT22;4164;49.844;8.830;2022-12-07T11:31:28;6.50;99.90
8248;DHT22;4164;49.844;8.830;2022-12-07T11:34:36;6.90;99.90
8248;DHT22;4164;49.844;8.830;2022-12-07T11:36:56;6.90;99.90
8248;DHT22;4164;49.844;8.830;2022-12-07T11:39:25;6.70;99.90
8248;DHT22;4164;49.844;8.830;2022-12-07T11:41:56;6.60;99.90
8248;DHT22;4164;49.844;8.830;2022-12-07T11:44:51;6.30;99.90
8248;DHT22;4164;49.844;8.830;2022-12-07T11:47:30;6.30;99.90
8248;DHT22;4164;49.844;8.830;2022-12-07T11:50:07;6.20;99.90
8248;DHT22;4164;49.844;8.830;2022-12-07T11:52:51;5.90;99.90
8248;DHT22;4164;49.844;8.830;2022-12-07T11:55:29;5.90;99.90
8248;DHT22;4164;49.844;8.830;2022-12-07T11:58:03;5.90;99.90
8248;DHT22;4164;49.844;8.830;2022-12-07T12:00:29;5.90;99.90
8248;DHT22;4164;49.844;8.830;2022-12-07T12:03:22;6.10;99.90
8248;DHT22;4164;49.844;8.830;2022-12-07T12:05:45;6.00;99.90
8248;DHT22;4164;49.844;8.830;2022-12-07T12:08:21;6.10;99.90
8248;DHT22;4164;49.844;8.830;2022-12-07T12:16:28;6.00;99.90
8248;DHT22;4164;49.844;8.830;2022-12-07T12:19:11;5.90;99.90
8248;DHT22;4164;49.844;8.830;2022-12-07T12:21:42;5.80;99.90
8248;DHT22;4164;49.844;8.830;2022-12-07T12:24:18;5.90;99.90
8248;DHT22;4164;49.844;8.830;2022-12-07T12:26:54;6.00;99.90
8248;DHT22;4164;49.844;8.830;2022-12-07T12:29:36;6.10;99.90
8248;DHT22;4164;49.844;8.830;2022-12-07T12:32:12;6.30;99.90
8248;DHT22;4164;49.844;8.830;2022-12-07T12:37:39;6.20;99.90
8248;DHT22;4164;49.844;8.830;2022-12-07T12:42:47;6.20;99.90
8248;DHT22;4164;49.844;8.830;2022-12-07T12:45:27;6.10;99.90
8248;DHT22;4164;49.844;8.830;2022-12-07T12:48:00;6.10;99.90
8248;DHT22;4164;49.844;8.830;2022-12-07T12:50:29;6.10;99.90
8248;DHT22;4164;49.844;8.830;2022-12-07T12:55:58;6.20;99.90
8248;DHT22;4164;49.844;8.830;2022-12-07T12:58:38;6.50;99.90
8248;DHT22;4164;49.844;8.830;2022-12-07T13:03:53;6.50;99.90
8248;DHT22;4164;49.844;8.830;2022-12-07T13:06:32;6.50;99.90
8248;DHT22;4164;49.844;8.830;2022-12-07T13:09:01;6.50;99.90
8248;DHT22;4164;49.844;8.830;2022-12-07T13:11:41;6.30;99.90
8248;DHT22;4164;49.844;8.830;2022-12-07T13:17:03;6.10;99.90
8248;DHT22;4164;49.844;8.830;2022-12-07T13:27:40;6.00;99.90
8248;DHT22;4164;49.844;8.830;2022-12-07T13:30:19;6.00;99.90
8248;DHT22;4164;49.844;8.830;2022-12-07T13:32:55;6.10;99.90
8248;DHT22;4164;49.844;8.830;2022-12-07T13:35:36;6.10;99.90
8248;DHT22;4164;49.844;8.830;2022-12-07T13:38:15;6.00;99.90
8248;DHT22;4164;49.844;8.830;2022-12-07T13:40:42;6.00;99.90
8248;DHT22;4164;49.844;8.830;2022-12-07T13:43:15;5.80;99.90
8248;DHT22;4164;49.844;8.830;2022-12-07T13:45:42;5.70;99.90
8248;DHT22;4164;49.844;8.830;2022-12-07T13:48:35;5.30;99.90
8248;DHT22;4164;49.844;8.830;2022-12-07T13:51:03;5.10;99.90
8248;DHT22;4164;49.844;8.830;2022-12-07T13:53:29;4.80;99.90
8248;DHT22;4164;49.844;8.830;2022-12-07T13:55:57;4.80;99.90
8248;DHT22;4164;49.844;8.830;2022-12-07T13:58:24;4.80;99.90
8248;DHT22;4164;49.844;8.830;2022-12-07T14:00:50;4.90;99.90
8248;DHT22;4164;49.844;8.830;2022-12-07T14:05:43;5.30;99.90
8248;DHT22;4164;49.844;8.830;2022-12-07T14:10:53;5.50;99.90
8248;DHT22;4164;49.844;8.830;2022-12-07T14:13:38;5.60;99.90
8248;DHT22;4164;49.844;8.830;2022-12-07T14:16:26;5.70;99.90
8248;DHT22;4164;49.844;8.830;2022-12-07T14:18:54;5.70;99.90
8248;DHT22;4164;49.844;8.830;2022-12-07T14:21:25;5.80;99.90
8248;DHT22;4164;49.844;8.830;2022-12-07T14:26:35;5.70;99.90
8248;DHT22;4164;49.844;8.830;2022-12-07T14:31:52;6.10;99.90
8248;DHT22;4164;49.844;8.830;2022-12-07T14:34:20;6.20;99.90
8248;DHT22;4164;49.844;8.830;2022-12-07T14:36:46;6.20;99.90
8248;DHT22;4164;49.844;8.830;2022-12-07T14:39:11;6.30;99.90
8248;DHT22;4164;49.844;8.830;2022-12-07T14:41:37;6.10;99.90
8248;DHT22;4164;49.844;8.830;2022-12-07T14:44:22;6.10;99.90
8248;DHT22;4164;49.844;8.830;2022-12-07T14:46:48;6.20;99.90
8248;DHT22;4164;49.844;8.830;2022-12-07T14:49:14;6.20;99.90
8248;DHT22;4164;49.844;8.830;2022-12-07T14:51:40;6.20;99.90
8248;DHT22;4164;49.844;8.830;2022-12-07T14:54:18;6.20;99.90
8248;DHT22;4164;49.844;8.830;2022-12-07T14:56:45;6.00;99.90
8248;DHT22;4164;49.844;8.830;2022-12-07T14:59:14;5.90;99.90
8248;DHT22;4164;49.844;8.830;2022-12-07T15:01:40;6.00;99.90
8248;DHT22;4164;49.844;8.830;2022-12-07T15:04:05;5.80;99.90
8248;DHT22;4164;49.844;8.830;2022-12-07T15:06:31;5.90;99.90
8248;DHT22;4164;49.844;8.830;2022-12-07T15:08:57;5.90;99.90
8248;DHT22;4164;49.844;8.830;2022-12-07T15:11:22;5.70;99.90
8248;DHT22;4164;49.844;8.830;2022-12-07T15:13:48;5.60;99.90
8248;DHT22;4164;49.844;8.830;2022-12-07T15:16:32;5.60;99.90
8248;DHT22;4164;49.844;8.830;2022-12-07T15:18:57;5.60;99.90
8248;DHT22;4164;49.844;8.830;2022-12-07T15:21:23;5.70;99.90
8248;DHT22;4164;49.844;8.830;2022-12-07T15:23:49;5.70;99.90
8248;DHT22;4164;49.844;8.830;2022-12-07T15:26:15;5.70;99.90
8248;DHT22;4164;49.844;8.830;2022-12-07T15:28:41;5.70;99.90
8248;DHT22;4164;49.844;8.830;2022-12-07T15:31:14;5.60;99.90
8248;DHT22;4164;49.844;8.830;2022-12-07T15:33:40;5.60;99.90
8248;DHT22;4164;49.844;8.830;2022-12-07T15:36:06;5.50;99.90
8248;DHT22;4164;49.844;8.830;2022-12-07T15:38:32;5.50;99.90
8248;DHT22;4164;49.844;8.830;2022-12-07T15:40:57;5.50;99.90
8248;DHT22;4164;49.844;8.830;2022-12-07T15:43:23;5.40;99.90
8248;DHT22;4164;49.844;8.830;2022-12-07T15:46:07;5.40;99.90
8248;DHT22;4164;49.844;8.830;2022-12-07T15:48:32;5.30;99.90
8248;DHT22;4164;49.844;8.830;2022-12-07T15:51:06;5.20;99.90
8248;DHT22;4164;49.844;8.830;2022-12-07T15:53:33;5.00;99.90
8248;DHT22;4164;49.844;8.830;2022-12-07T15:55:59;4.90;99.90
8248;DHT22;4164;49.844;8.830;2022-12-07T15:58:24;4.80;99.90
8248;DHT22;4164;49.844;8.830;2022-12-07T16:00:50;4.70;99.90
8248;DHT22;4164;49.844;8.830;2022-12-07T16:03:16;4.60;99.90
8248;DHT22;4164;49.844;8.830;2022-12-07T16:05:41;4.50;99.90
8248;DHT22;4164;49.844;8.830;2022-12-07T16:08:07;4.50;99.90
8248;DHT22;4164;49.844;8.830;2022-12-07T16:10:32;4.50;99.90
8248;DHT22;4164;49.844;8.830;2022-12-07T16:12:58;4.60;99.90
8248;DHT22;4164;49.844;8.830;2022-12-07T16:15:23;4.60;99.90
8248;DHT22;4164;49.844;8.830;2022-12-07T16:17:51;4.70;99.90
8248;DHT22;4164;49.844;8.830;2022-12-07T16:20:17;4.80;99.90
8248;DHT22;4164;49.844;8.830;2022-12-07T16:22:42;4.90;99.90
8248;DHT22;4164;49.844;8.830;2022-12-07T16:25:08;5.10;99.90
8248;DHT22;4164;49.844;8.830;2022-12-07T16:27:34;5.00;99.90
8248;DHT22;4164;49.844;8.830;2022-12-07T16:30:00;5.00;99.90
8248;DHT22;4164;49.844;8.830;2022-12-07T16:32:25;4.90;99.90
8248;DHT22;4164;49.844;8.830;2022-12-07T16:34:51;4.90;99.90
8248;DHT22;4164;49.844;8.830;2022-12-07T16:37:16;5.00;99.90
8248;DHT22;4164;49.844;8.830;2022-12-07T16:39:42;5.00;99.90
8248;DHT22;4164;49.844;8.830;2022-12-07T16:42:08;5.00;99.90
8248;DHT22;4164;49.844;8.830;2022-12-07T16:44:33;5.00;99.90
8248;DHT22;4164;49.844;8.830;2022-12-07T16:46:59;5.10;99.90
8248;DHT22;4164;49.844;8.830;2022-12-07T16:49:26;5.10;99.90
8248;DHT22;4164;49.844;8.830;2022-12-07T16:51:52;5.30;99.90
8248;DHT22;4164;49.844;8.830;2022-12-07T16:54:17;5.10;99.90
8248;DHT22;4164;49.844;8.830;2022-12-07T16:56:43;5.00;99.90
8248;DHT22;4164;49.844;8.830;2022-12-07T16:59:09;4.90;99.90
8248;DHT22;4164;49.844;8.830;2022-12-07T17:01:37;4.80;99.90
8248;DHT22;4164;49.844;8.830;2022-12-07T17:04:03;4.70;99.90
8248;DHT22;4164;49.844;8.830;2022-12-07T17:06:29;4.50;99.90
8248;DHT22;4164;49.844;8.830;2022-12-07T17:08:56;4.50;99.90
8248;DHT22;4164;49.844;8.830;2022-12-07T17:11:27;4.50;99.90
8248;DHT22;4164;49.844;8.830;2022-12-07T17:13:54;4.50;99.90
8248;DHT22;4164;49.844;8.830;2022-12-07T17:16:38;4.50;99.90
8248;DHT22;4164;49.844;8.830;2022-12-07T17:19:09;4.70;99.90
8248;DHT22;4164;49.844;8.830;2022-12-07T17:21:35;4.80;99.90
8248;DHT22;4164;49.844;8.830;2022-12-07T17:24:02;4.90;99.90
8248;DHT22;4164;49.844;8.830;2022-12-07T17:26:29;5.00;99.90
8248;DHT22;4164;49.844;8.830;2022-12-07T17:28:55;5.00;99.90
8248;DHT22;4164;49.844;8.830;2022-12-07T17:31:22;4.90;99.90
8248;DHT22;4164;49.844;8.830;2022-12-07T17:33:48;4.90;99.90
8248;DHT22;4164;49.844;8.830;2022-12-07T17:36:20;4.90;99.90
8248;DHT22;4164;49.844;8.830;2022-12-07T17:38:46;4.80;99.90
8248;DHT22;4164;49.844;8.830;2022-12-07T17:44:06;4.80;99.90
8248;DHT22;4164;49.844;8.830;2022-12-07T17:46:32;4.80;99.90
8248;DHT22;4164;49.844;8.830;2022-12-07T17:48:58;4.80;99.90
8248;DHT22;4164;49.844;8.830;2022-12-07T17:51:24;4.80;99.90
8248;DHT22;4164;49.844;8.830;2022-12-07T17:54:08;4.90;99.90
8248;DHT22;4164;49.844;8.830;2022-12-07T17:56:35;4.80;99.90
8248;DHT22;4164;49.844;8.830;2022-12-07T17:59:00;4.70;99.90
8248;DHT22;4164;49.844;8.830;2022-12-07T18:01:26;4.80;99.90
8248;DHT22;4164;49.844;8.830;2022-12-07T18:03:51;4.70;99.90
8248;DHT22;4164;49.844;8.830;2022-12-07T18:06:17;4.90;99.90
8248;DHT22;4164;49.844;8.830;2022-12-07T18:08:43;4.90;99.90
8248;DHT22;4164;49.844;8.830;2022-12-07T18:11:09;4.90;99.90